Time;durP1;ratioP1;P1;durP2;ratioP2;P2;SDS_P1;SDS_P2;PMS_P1;PMS_P2;Temp;Humidity;BMP_temperature;BMP_pressure;BME280_temperature;BME280_humidity;BME280_pressure;Samples;Min_cycle;Max_cycle;Signal;HPM_P1;HPM_P2
2022/08/07 00:01:35;;;;;;;2.45;2.35;;;24.40;70.30;;;;;;5111489;28;20184;-70
2022/08/07 00:04:01;;;;;;;2.90;2.70;;;24.40;70.30;;;;;;5093797;28;20246;-70
2022/08/07 00:06:27;;;;;;;2.70;2.60;;;24.40;70.30;;;;;;5093562;28;20180;-70
2022/08/07 00:08:53;;;;;;;3.00;2.80;;;24.40;70.30;;;;;;5093791;28;20223;-70
2022/08/07 00:11:18;;;;;;;2.33;2.22;;;24.40;70.30;;;;;;5093211;28;20687;-70
2022/08/07 00:13:46;;;;;;;2.75;2.58;;;24.40;70.20;;;;;;5110603;28;20302;-71
2022/08/07 00:16:13;;;;;;;2.38;2.28;;;24.40;70.30;;;;;;5077042;28;20598;-70
2022/08/07 00:18:39;;;;;;;2.85;2.65;;;24.40;70.30;;;;;;5093274;28;20210;-70
2022/08/07 00:21:08;;;;;;;2.53;2.42;;;24.40;70.30;;;;;;5096206;28;20176;-71
2022/08/07 00:23:37;;;;;;;2.60;2.50;;;24.40;70.40;;;;;;5097449;28;20557;-71
2022/08/07 00:26:06;;;;;;;2.40;2.30;;;24.40;70.30;;;;;;5115343;28;20184;-72
2022/08/07 00:28:33;;;;;;;2.60;2.40;;;24.40;70.30;;;;;;5115766;28;20264;-71
2022/08/07 00:31:04;;;;;;;2.28;2.17;;;24.40;70.30;;;;;;5096958;28;20222;-70
2022/08/07 00:33:29;;;;;;;2.63;2.47;;;24.40;70.30;;;;;;5080453;28;20190;-70
2022/08/07 00:35:56;;;;;;;2.70;2.50;;;24.40;71.10;;;;;;5097176;28;20184;-70
2022/08/07 00:38:22;;;;;;;2.40;2.30;;;24.40;70.20;;;;;;5097019;28;20207;-70
2022/08/07 00:40:49;;;;;;;2.83;2.67;;;24.40;70.20;;;;;;5096772;28;20184;-70
2022/08/07 00:43:15;;;;;;;2.40;2.30;;;24.40;70.30;;;;;;5097155;28;20183;-70
2022/08/07 00:45:42;;;;;;;2.80;2.60;;;24.40;70.20;;;;;;5080243;28;20176;-70
2022/08/07 00:48:10;;;;;;;2.80;2.60;;;24.40;70.40;;;;;;5114292;28;20710;-70
2022/08/07 00:50:39;;;;;;;2.40;2.30;;;24.40;70.20;;;;;;5096674;28;20219;-70
2022/08/07 00:53:05;;;;;;;2.70;2.50;;;24.40;70.20;;;;;;5093724;28;20173;-71
2022/08/07 00:55:32;;;;;;;2.92;2.72;;;24.40;70.20;;;;;;5094730;28;20188;-70
2022/08/07 00:57:58;;;;;;;2.63;2.45;;;24.40;70.20;;;;;;5094595;28;20228;-70
2022/08/07 01:00:24;;;;;;;2.60;2.50;;;24.40;70.20;;;;;;5092896;28;20213;-71
2022/08/07 01:02:50;;;;;;;2.75;2.60;;;24.40;70.20;;;;;;5076641;28;20287;-70
2022/08/07 01:05:19;;;;;;;2.92;2.72;;;24.40;70.20;;;;;;5076514;28;20192;-70
2022/08/07 01:07:45;;;;;;;2.80;2.60;;;24.30;70.30;;;;;;5093093;28;20247;-70
2022/08/07 01:10:11;;;;;;;2.83;2.63;;;24.30;70.20;;;;;;5075698;28;20570;-70
2022/08/07 01:12:41;;;;;;;2.38;2.28;;;24.40;70.30;;;;;;5093232;28;20181;-71
2022/08/07 01:15:09;;;;;;;2.55;2.45;;;24.40;70.20;;;;;;5059858;28;20208;-72
2022/08/07 01:17:35;;;;;;;2.35;2.17;;;24.40;70.20;;;;;;5076057;28;20196;-70
2022/08/07 01:20:08;;;;;;;2.30;2.20;;;24.30;70.10;;;;;;5078370;28;20187;-70
2022/08/07 01:22:37;;;;;;;2.40;2.20;;;24.30;70.00;;;;;;5109764;28;20279;-70
2022/08/07 01:25:07;;;;;;;2.25;2.15;;;24.40;70.10;;;;;;5096364;28;20188;-70
2022/08/07 01:27:34;;;;;;;2.30;2.20;;;24.30;69.90;;;;;;5113454;28;20204;-70
2022/08/07 01:30:02;;;;;;;2.33;2.22;;;24.30;69.90;;;;;;5112432;28;20210;-70
2022/08/07 01:32:28;;;;;;;2.42;2.33;;;24.30;69.80;;;;;;5112751;28;20183;-70
2022/08/07 01:34:56;;;;;;;2.38;2.28;;;24.30;69.90;;;;;;5113278;28;20266;-70
2022/08/07 01:37:23;;;;;;;2.22;2.13;;;24.30;69.80;;;;;;5112794;28;20215;-70
2022/08/07 01:39:52;;;;;;;2.20;2.10;;;24.30;69.80;;;;;;5112446;28;20176;-70
2022/08/07 01:42:25;;;;;;;2.30;2.20;;;24.30;69.80;;;;;;5097323;28;20187;-70
2022/08/07 01:44:53;;;;;;;2.28;2.17;;;24.30;69.90;;;;;;5114336;28;20732;-70
2022/08/07 01:47:19;;;;;;;2.40;2.20;;;24.30;69.80;;;;;;5112786;28;20192;-70
2022/08/07 01:49:45;;;;;;;2.28;2.17;;;24.30;69.70;;;;;;5095222;28;20187;-70
2022/08/07 01:52:13;;;;;;;2.20;2.10;;;24.30;69.80;;;;;;5112774;28;20198;-70
2022/08/07 01:54:43;;;;;;;2.30;2.20;;;24.30;69.70;;;;;;5112947;28;20192;-71
2022/08/07 01:57:20;;;;;;;2.22;2.13;;;24.30;69.70;;;;;;5112734;28;20593;-70
2022/08/07 01:59:55;;;;;;;2.33;2.22;;;24.30;69.70;;;;;;5112131;28;20180;-70
2022/08/07 02:02:32;;;;;;;2.42;2.22;;;24.30;69.50;;;;;;5095622;28;20631;-70
2022/08/07 02:05:06;;;;;;;2.10;2.00;;;24.30;69.50;;;;;;5095709;28;20172;-70
2022/08/07 02:07:56;;;;;;;2.30;2.20;;;24.30;69.50;;;;;;5112448;28;20203;-70
2022/08/07 02:10:34;;;;;;;2.60;2.47;;;24.30;69.60;;;;;;5111937;28;20597;-70
2022/08/07 02:13:05;;;;;;;2.10;2.00;;;24.30;69.60;;;;;;5096013;28;20241;-70
2022/08/07 02:15:38;;;;;;;2.25;2.15;;;24.30;69.60;;;;;;5111831;28;20187;-71
2022/08/07 02:18:10;;;;;;;2.13;2.00;;;24.30;69.70;;;;;;5091872;28;20279;-71
2022/08/07 02:20:36;;;;;;;1.88;1.77;;;24.30;69.70;;;;;;5065465;28;20222;-70
2022/08/07 02:23:06;;;;;;;2.30;2.20;;;24.30;69.60;;;;;;5077773;28;20184;-70
2022/08/07 02:25:35;;;;;;;1.95;1.85;;;24.30;69.50;;;;;;5078362;28;20180;-71
2022/08/07 02:28:04;;;;;;;2.20;2.10;;;24.30;69.60;;;;;;5113281;28;20226;-70
2022/08/07 02:30:35;;;;;;;2.20;2.10;;;24.30;69.50;;;;;;5094487;28;20238;-70
2022/08/07 02:33:03;;;;;;;2.10;2.00;;;24.30;69.50;;;;;;5095019;28;20184;-70
2022/08/07 02:35:33;;;;;;;2.30;2.20;;;24.30;69.50;;;;;;5095815;28;20240;-70
2022/08/07 02:38:02;;;;;;;2.20;2.08;;;24.30;69.50;;;;;;5102352;28;20196;-70
2022/08/07 02:40:32;;;;;;;2.70;2.50;;;24.30;69.50;;;;;;5111403;28;20187;-70
2022/08/07 02:42:59;;;;;;;2.38;2.20;;;24.30;69.50;;;;;;5110976;28;20267;-71
2022/08/07 02:45:29;;;;;;;2.08;1.98;;;24.30;69.50;;;;;;5102540;28;20240;-72
2022/08/07 02:47:55;;;;;;;2.40;2.30;;;24.30;69.50;;;;;;5110914;28;20299;-70
2022/08/07 02:50:23;;;;;;;2.00;1.90;;;24.20;69.40;;;;;;5111050;28;20253;-70
2022/08/07 02:53:10;;;;;;;2.20;2.10;;;24.20;69.40;;;;;;5094863;28;20187;-72
2022/08/07 02:55:46;;;;;;;2.30;2.20;;;24.30;69.50;;;;;;5111633;28;20260;-70
2022/08/07 02:58:18;;;;;;;2.10;2.00;;;24.30;69.50;;;;;;5094691;28;20231;-70
2022/08/07 03:00:50;;;;;;;2.00;1.90;;;24.20;69.50;;;;;;5110954;28;20241;-70
2022/08/07 03:03:19;;;;;;;2.50;2.30;;;24.20;69.30;;;;;;5111778;28;20180;-70
2022/08/07 03:05:49;;;;;;;2.13;2.03;;;24.20;69.30;;;;;;5111417;28;20207;-70
2022/08/07 03:08:17;;;;;;;1.90;1.80;;;24.20;69.40;;;;;;5111232;28;20223;-70
2022/08/07 03:10:45;;;;;;;2.17;2.08;;;24.20;69.30;;;;;;5110967;28;20309;-70
2022/08/07 03:13:14;;;;;;;1.67;1.58;;;24.30;69.40;;;;;;5094698;28;20184;-70
2022/08/07 03:15:43;;;;;;;2.10;2.00;;;24.20;69.30;;;;;;5111685;28;20231;-70
2022/08/07 03:18:11;;;;;;;2.10;2.00;;;24.30;70.20;;;;;;5111281;28;20204;-70
2022/08/07 03:20:39;;;;;;;2.00;1.90;;;24.20;69.40;;;;;;5093646;28;20176;-70
2022/08/07 03:23:08;;;;;;;2.00;1.90;;;24.20;69.40;;;;;;5111315;28;20670;-70
2022/08/07 03:25:38;;;;;;;2.20;2.10;;;24.20;69.40;;;;;;5111403;28;20215;-70
2022/08/07 03:28:08;;;;;;;2.20;2.10;;;24.20;69.40;;;;;;5111253;28;20204;-70
2022/08/07 03:30:34;;;;;;;1.90;1.80;;;24.20;69.50;;;;;;5110535;28;20204;-70
2022/08/07 03:33:02;;;;;;;1.80;1.70;;;24.20;69.40;;;;;;5094011;28;20208;-71
2022/08/07 03:35:33;;;;;;;1.90;1.80;;;24.20;69.40;;;;;;5111443;28;20180;-70
2022/08/07 03:38:03;;;;;;;1.80;1.70;;;24.20;69.40;;;;;;5110302;28;20200;-70
2022/08/07 03:40:31;;;;;;;2.00;1.90;;;24.20;69.40;;;;;;5110463;28;20731;-70
2022/08/07 03:42:59;;;;;;;2.10;2.00;;;24.20;69.30;;;;;;5111006;28;20211;-70
2022/08/07 03:45:28;;;;;;;2.35;2.25;;;24.20;69.30;;;;;;5111139;28;20660;-70
2022/08/07 03:47:59;;;;;;;2.50;2.30;;;24.20;69.30;;;;;;5111135;28;20210;-70
2022/08/07 03:50:27;;;;;;;1.95;1.85;;;24.20;69.40;;;;;;5110252;28;20265;-70
2022/08/07 03:52:58;;;;;;;2.10;2.00;;;24.20;70.20;;;;;;5094011;28;20210;-71
2022/08/07 03:55:24;;;;;;;2.20;2.10;;;24.20;69.50;;;;;;5113821;28;20188;-70
2022/08/07 03:57:51;;;;;;;2.35;2.15;;;24.20;69.50;;;;;;5115066;28;20219;-71
2022/08/07 04:00:18;;;;;;;1.90;1.80;;;24.20;69.50;;;;;;5114485;28;20184;-70
2022/08/07 04:02:48;;;;;;;2.30;2.20;;;24.20;69.40;;;;;;5114910;28;20180;-70
2022/08/07 04:05:24;;;;;;;2.20;2.10;;;24.20;69.40;;;;;;5114915;28;20675;-70
2022/08/07 04:07:51;;;;;;;2.38;2.28;;;24.20;69.40;;;;;;5114929;28;20215;-70
2022/08/07 04:10:21;;;;;;;2.05;1.95;;;24.20;69.50;;;;;;5097884;28;20218;-70
2022/08/07 04:12:49;;;;;;;2.28;2.10;;;24.20;69.50;;;;;;5103235;28;20176;-70
2022/08/07 04:15:17;;;;;;;2.05;1.95;;;24.20;69.40;;;;;;5080414;28;20211;-70
2022/08/07 04:17:44;;;;;;;2.40;2.30;;;24.20;69.50;;;;;;5097831;28;20200;-70
2022/08/07 04:20:12;;;;;;;2.28;2.17;;;24.20;69.50;;;;;;5097022;28;20313;-70
2022/08/07 04:22:43;;;;;;;2.40;2.30;;;24.20;69.50;;;;;;5080791;28;20187;-70
2022/08/07 04:25:10;;;;;;;2.33;2.13;;;24.20;69.40;;;;;;5097606;28;20192;-70
2022/08/07 04:27:37;;;;;;;2.17;2.08;;;24.10;69.40;;;;;;5097350;28;20207;-70
2022/08/07 04:30:08;;;;;;;2.05;1.95;;;24.10;69.40;;;;;;5096397;28;20204;-70
2022/08/07 04:32:44;;;;;;;2.10;2.00;;;24.20;69.50;;;;;;5097464;28;20179;-70
2022/08/07 04:35:11;;;;;;;2.50;2.35;;;24.20;69.60;;;;;;5097331;28;20666;-70
2022/08/07 04:37:38;;;;;;;2.60;2.45;;;24.20;69.60;;;;;;5079791;28;20249;-70
2022/08/07 04:40:05;;;;;;;2.30;2.20;;;24.20;69.60;;;;;;5096758;28;20299;-70
2022/08/07 04:42:33;;;;;;;2.45;2.33;;;24.10;69.50;;;;;;5097469;28;20647;-70
2022/08/07 04:45:02;;;;;;;2.78;2.58;;;24.20;69.70;;;;;;5097547;28;20562;-70
2022/08/07 04:47:39;;;;;;;2.10;2.00;;;24.20;69.80;;;;;;5080172;28;20210;-70
2022/08/07 04:50:40;;;;;;;2.50;2.40;;;24.20;69.80;;;;;;5113543;28;20215;-70
2022/08/07 04:53:36;;;;;;;2.20;2.10;;;24.20;69.70;;;;;;5071165;28;20192;-70
2022/08/07 04:56:51;;;;;;;2.50;2.30;;;24.20;69.70;;;;;;5096547;28;20679;-71
2022/08/07 04:59:46;;;;;;;2.50;2.40;;;24.20;69.80;;;;;;5097095;28;20339;-71
2022/08/07 05:02:47;;;;;;;2.08;1.98;;;24.10;69.70;;;;;;5078803;28;20192;-70
2022/08/07 05:05:25;;;;;;;2.10;2.00;;;24.20;69.70;;;;;;5096617;28;20187;-70
2022/08/07 05:08:06;;;;;;;2.10;2.00;;;24.10;69.60;;;;;;5096296;28;20227;-70
2022/08/07 05:10:47;;;;;;;2.30;2.20;;;24.10;69.70;;;;;;5096207;28;20597;-70
2022/08/07 05:13:23;;;;;;;2.45;2.35;;;24.10;69.80;;;;;;5079760;28;20183;-70
2022/08/07 05:15:52;;;;;;;2.53;2.35;;;24.20;69.80;;;;;;5096635;28;20184;-70
2022/08/07 05:18:27;;;;;;;2.20;2.10;;;24.20;69.80;;;;;;5096643;28;20192;-71
2022/08/07 05:21:02;;;;;;;2.55;2.40;;;24.20;69.90;;;;;;5096039;28;20251;-70
2022/08/07 05:24:01;;;;;;;2.60;2.40;;;24.10;69.70;;;;;;5096744;28;20211;-70
2022/08/07 05:26:32;;;;;;;2.28;2.17;;;24.20;69.80;;;;;;5096264;28;20188;-70
2022/08/07 05:29:08;;;;;;;2.30;2.20;;;24.20;69.90;;;;;;5080276;28;20184;-70
2022/08/07 05:31:39;;;;;;;2.72;2.53;;;24.10;69.80;;;;;;5078666;28;20211;-70
2022/08/07 05:34:11;;;;;;;2.50;2.40;;;24.10;69.80;;;;;;5080049;28;20312;-70
2022/08/07 05:36:45;;;;;;;2.67;2.50;;;24.20;69.90;;;;;;5079713;28;20271;-70
2022/08/07 05:39:21;;;;;;;2.28;2.17;;;24.10;69.80;;;;;;5095920;28;20172;-70
2022/08/07 05:41:49;;;;;;;2.67;2.47;;;24.10;69.80;;;;;;5112842;28;20187;-70
2022/08/07 05:44:20;;;;;;;2.20;2.10;;;24.10;69.80;;;;;;5096214;28;20188;-70
2022/08/07 05:46:50;;;;;;;2.05;1.95;;;24.10;69.80;;;;;;5079147;28;20290;-70
2022/08/07 05:49:21;;;;;;;2.20;2.10;;;24.20;69.90;;;;;;5096143;28;20179;-70
2022/08/07 05:51:50;;;;;;;2.05;1.95;;;24.10;69.80;;;;;;5095301;28;20208;-71
2022/08/07 05:54:18;;;;;;;2.13;2.03;;;24.10;69.90;;;;;;5113178;28;20176;-70
2022/08/07 05:56:47;;;;;;;2.08;1.98;;;24.10;69.80;;;;;;5079259;28;20211;-71
2022/08/07 05:59:18;;;;;;;2.65;2.45;;;24.10;69.90;;;;;;5078847;28;20184;-70
2022/08/07 06:01:49;;;;;;;2.30;2.20;;;24.10;69.90;;;;;;5095126;28;20184;-70
2022/08/07 06:04:18;;;;;;;2.83;2.63;;;24.10;69.90;;;;;;5095000;28;20180;-70
2022/08/07 06:06:44;;;;;;;2.40;2.30;;;24.10;69.90;;;;;;5095697;28;20196;-70
2022/08/07 06:09:14;;;;;;;2.30;2.20;;;24.10;69.90;;;;;;5095490;28;20192;-71
2022/08/07 06:11:44;;;;;;;2.30;2.20;;;24.10;69.90;;;;;;5094963;28;20266;-70
2022/08/07 06:14:11;;;;;;;2.30;2.20;;;24.10;69.90;;;;;;5095592;28;20184;-70
2022/08/07 06:16:38;;;;;;;2.55;2.40;;;24.10;69.90;;;;;;5078370;28;20261;-70
2022/08/07 06:19:05;;;;;;;2.20;2.00;;;24.10;69.90;;;;;;5077992;28;20175;-71
2022/08/07 06:21:33;;;;;;;2.35;2.25;;;24.10;69.90;;;;;;5074361;28;20184;-71
2022/08/07 06:23:59;;;;;;;2.42;2.28;;;24.10;69.90;;;;;;5075124;28;20185;-70
2022/08/07 06:26:26;;;;;;;2.08;1.98;;;24.10;69.80;;;;;;5093145;28;20253;-71
2022/08/07 06:28:56;;;;;;;2.40;2.30;;;24.10;69.90;;;;;;5074884;28;20702;-70
2022/08/07 06:31:25;;;;;;;2.33;2.22;;;24.10;69.80;;;;;;5074168;28;20224;-70
2022/08/07 06:33:52;;;;;;;2.10;2.00;;;24.10;69.80;;;;;;5074818;28;20268;-70
2022/08/07 06:36:18;;;;;;;2.20;2.10;;;24.10;69.80;;;;;;5074778;28;20638;-71
2022/08/07 06:38:54;;;;;;;2.10;2.00;;;24.10;69.80;;;;;;5074317;28;20187;-71
2022/08/07 06:41:37;;;;;;;1.73;1.63;;;24.10;69.80;;;;;;5057454;28;20185;-70
2022/08/07 06:44:07;;;;;;;2.40;2.20;;;24.10;69.90;;;;;;5074479;28;20656;-70
2022/08/07 06:46:33;;;;;;;1.85;1.75;;;24.10;69.90;;;;;;5074631;28;20184;-70
2022/08/07 06:49:00;;;;;;;2.00;1.73;;;24.10;69.90;;;;;;5074738;28;20227;-70
2022/08/07 06:51:30;;;;;;;2.00;1.90;;;24.10;69.90;;;;;;5092079;28;20205;-70
2022/08/07 06:54:02;;;;;;;2.03;1.92;;;24.10;69.80;;;;;;5092611;28;20173;-70
2022/08/07 06:56:42;;;;;;;2.10;2.00;;;24.10;69.70;;;;;;5074223;28;20188;-71
2022/08/07 06:59:20;;;;;;;2.20;2.10;;;24.10;69.60;;;;;;5058541;28;20244;-70
2022/08/07 07:01:52;;;;;;;1.95;1.85;;;24.10;69.60;;;;;;5073970;28;20185;-70
2022/08/07 07:04:20;;;;;;;1.75;1.65;;;24.10;69.60;;;;;;5074427;28;20201;-70
2022/08/07 07:06:46;;;;;;;2.05;1.95;;;24.10;69.70;;;;;;5074013;28;20188;-70
2022/08/07 07:09:26;;;;;;;2.13;2.03;;;24.10;69.70;;;;;;5074463;28;20245;-70
2022/08/07 07:12:07;;;;;;;2.05;1.95;;;24.10;69.60;;;;;;5073687;28;20212;-70
2022/08/07 07:14:59;;;;;;;2.10;2.00;;;24.10;69.60;;;;;;5074259;28;20215;-70
2022/08/07 07:17:51;;;;;;;1.80;1.70;;;24.10;69.70;;;;;;5092310;28;20197;-70
2022/08/07 07:20:22;;;;;;;2.10;2.00;;;24.10;69.50;;;;;;5091614;28;20267;-71
2022/08/07 07:22:49;;;;;;;1.83;1.73;;;24.10;69.30;;;;;;5074272;28;20199;-72
2022/08/07 07:25:18;;;;;;;1.88;1.77;;;24.10;69.30;;;;;;5073914;28;20267;-70
2022/08/07 07:27:57;;;;;;;1.88;1.77;;;24.10;69.30;;;;;;5074070;28;20205;-70
2022/08/07 07:30:29;;;;;;;1.70;1.60;;;24.10;69.40;;;;;;5072686;28;20219;-70
2022/08/07 07:32:59;;;;;;;1.55;1.45;;;24.10;69.30;;;;;;5073913;28;20181;-70
2022/08/07 07:35:27;;;;;;;1.70;1.60;;;24.10;69.30;;;;;;5074087;28;20187;-70
2022/08/07 07:37:56;;;;;;;1.80;1.70;;;24.10;69.30;;;;;;5073407;28;20197;-71
2022/08/07 07:40:23;;;;;;;1.70;1.60;;;24.10;69.40;;;;;;5056656;28;20219;-70
2022/08/07 07:42:54;;;;;;;1.70;1.60;;;24.10;69.30;;;;;;5074038;28;20280;-70
2022/08/07 07:45:25;;;;;;;1.67;1.58;;;24.10;69.10;;;;;;5073827;28;20199;-72
2022/08/07 07:47:53;;;;;;;1.63;1.52;;;24.10;69.10;;;;;;5057031;28;20303;-70
2022/08/07 07:50:23;;;;;;;1.60;1.50;;;24.10;69.00;;;;;;5073367;28;20299;-70
2022/08/07 07:52:51;;;;;;;1.60;1.50;;;24.10;69.00;;;;;;5073821;28;20185;-70
2022/08/07 07:55:19;;;;;;;1.65;1.55;;;24.10;69.00;;;;;;5073874;28;20557;-71
2022/08/07 07:57:49;;;;;;;1.73;1.63;;;24.10;69.00;;;;;;5056649;28;20247;-70
2022/08/07 08:00:17;;;;;;;1.40;1.30;;;24.10;68.70;;;;;;5076067;28;20195;-70
2022/08/07 08:02:48;;;;;;;1.63;1.52;;;24.20;68.70;;;;;;5102263;28;20184;-70
2022/08/07 08:05:16;;;;;;;1.50;1.40;;;24.20;68.50;;;;;;5093265;28;20184;-70
2022/08/07 08:07:44;;;;;;;1.27;1.27;;;24.20;68.40;;;;;;5091606;28;20235;-70
2022/08/07 08:10:13;;;;;;;1.83;1.73;;;24.20;68.20;;;;;;5073312;28;20206;-69
2022/08/07 08:12:39;;;;;;;1.60;1.50;;;24.30;68.20;;;;;;5092351;28;20230;-70
2022/08/07 08:15:06;;;;;;;1.50;1.40;;;24.20;67.70;;;;;;5111688;28;20180;-70
2022/08/07 08:17:35;;;;;;;1.60;1.50;;;24.30;67.70;;;;;;5111771;28;20199;-72
2022/08/07 08:20:07;;;;;;;1.45;1.35;;;24.30;67.60;;;;;;5111938;28;20176;-70
2022/08/07 08:28:23;;;;;;;1.35;1.30;;;24.30;67.20;;;;;;5111783;28;20203;-70
2022/08/07 08:30:56;;;;;;;1.20;1.20;;;24.30;67.30;;;;;;5076118;28;20247;-70
2022/08/07 08:33:31;;;;;;;1.45;1.35;;;24.30;67.00;;;;;;5093738;28;20183;-70
2022/08/07 08:35:59;;;;;;;1.67;1.58;;;24.30;67.20;;;;;;5093510;28;20248;-70
2022/08/07 08:38:32;;;;;;;1.60;1.50;;;24.40;67.60;;;;;;5110092;28;20203;-70
2022/08/07 08:41:48;;;;;;;1.30;1.30;;;24.30;67.40;;;;;;5113135;28;20187;-71
2022/08/07 08:44:38;;;;;;;1.60;1.50;;;24.40;67.40;;;;;;5115515;28;20177;-70
2022/08/07 08:47:18;;;;;;;1.23;1.23;;;24.40;67.20;;;;;;5115337;28;20211;-71
2022/08/07 08:49:51;;;;;;;1.50;1.40;;;24.40;67.00;;;;;;5080278;28;20202;-70
2022/08/07 08:52:28;;;;;;;1.25;1.25;;;24.40;67.20;;;;;;5113559;28;20215;-70
2022/08/07 08:55:15;;;;;;;1.35;1.30;;;24.40;67.30;;;;;;5097178;28;20184;-70
2022/08/07 08:58:01;;;;;;;1.38;1.27;;;24.40;67.40;;;;;;5080280;28;20252;-70
2022/08/07 09:00:35;;;;;;;1.38;1.38;;;24.40;67.50;;;;;;5096475;28;20216;-71
2022/08/07 09:03:11;;;;;;;1.50;1.40;;;24.40;66.90;;;;;;5115295;28;20180;-70
2022/08/07 09:05:53;;;;;;;1.40;1.30;;;24.40;67.10;;;;;;5096914;28;20240;-71
2022/08/07 09:08:54;;;;;;;1.42;1.33;;;24.40;67.10;;;;;;5115143;28;20219;-70
2022/08/07 09:11:52;;;;;;;1.52;1.42;;;24.40;66.90;;;;;;5093557;28;20251;-70
2022/08/07 09:14:39;;;;;;;1.40;1.30;;;24.40;67.40;;;;;;5096634;28;20188;-71
2022/08/07 09:17:32;;;;;;;1.10;1.10;;;24.40;66.60;;;;;;5096530;28;20273;-70
2022/08/07 09:20:28;;;;;;;1.50;1.40;;;24.40;66.60;;;;;;5114797;28;20188;-70
2022/08/07 09:23:21;;;;;;;1.00;1.00;;;24.40;66.60;;;;;;5079704;28;20188;-70
2022/08/07 09:26:23;;;;;;;1.27;1.20;;;24.40;66.70;;;;;;5114671;28;20184;-70
2022/08/07 09:29:01;;;;;;;1.63;1.15;;;24.40;66.70;;;;;;5091386;28;20212;-70
2022/08/07 09:31:50;;;;;;;1.15;1.15;;;24.40;66.70;;;;;;5113863;28;20248;-70
2022/08/07 09:34:31;;;;;;;1.27;1.27;;;24.40;66.60;;;;;;5114562;28;20176;-70
2022/08/07 09:37:24;;;;;;;1.58;1.48;;;24.40;66.60;;;;;;5096037;28;20200;-70
2022/08/07 09:40:30;;;;;;;1.20;1.20;;;24.40;66.60;;;;;;5096217;28;20186;-70
2022/08/07 09:43:08;;;;;;;1.45;1.35;;;24.50;66.20;;;;;;5114404;28;20195;-70
2022/08/07 09:46:20;;;;;;;1.23;1.20;;;24.40;66.10;;;;;;5096210;28;20245;-70
2022/08/07 09:49:29;;;;;;;1.30;1.20;;;24.40;66.30;;;;;;5112981;28;20214;-70
2022/08/07 09:52:46;;;;;;;1.20;1.20;;;24.40;66.60;;;;;;5094556;28;20235;-70
2022/08/07 09:55:19;;;;;;;1.30;1.30;;;24.40;66.30;;;;;;5041045;28;20200;-70
2022/08/07 09:58:18;;;;;;;1.17;1.17;;;24.50;66.10;;;;;;5079065;28;20261;-70
2022/08/07 10:01:39;;;;;;;1.20;1.20;;;24.40;66.30;;;;;;5113723;28;20210;-70
2022/08/07 10:04:44;;;;;;;1.20;1.15;;;24.40;65.90;;;;;;5011274;28;20243;-70
2022/08/07 10:08:00;;;;;;;1.40;1.30;;;24.50;66.10;;;;;;5078280;28;20253;-71
2022/08/07 10:10:57;;;;;;;1.20;1.20;;;24.40;66.10;;;;;;5010102;28;20733;-70
2022/08/07 10:13:47;;;;;;;1.38;1.30;;;24.50;66.30;;;;;;5095691;28;20184;-70
2022/08/07 10:16:48;;;;;;;1.05;1.05;;;24.50;65.80;;;;;;5113678;28;20180;-70
2022/08/07 10:19:47;;;;;;;0.95;0.95;;;24.50;66.40;;;;;;5095389;28;20271;-70
2022/08/07 10:22:57;;;;;;;1.23;1.23;;;24.50;66.00;;;;;;5111873;28;20184;-70
2022/08/07 10:26:01;;;;;;;1.20;1.20;;;24.50;65.70;;;;;;5095309;28;20274;-70
2022/08/07 10:29:05;;;;;;;1.00;1.00;;;24.50;65.70;;;;;;5066756;28;20228;-70
2022/08/07 10:32:05;;;;;;;1.25;1.15;;;24.50;65.70;;;;;;5112650;28;20207;-70
2022/08/07 10:35:26;;;;;;;1.17;1.15;;;24.50;65.80;;;;;;5095191;28;20180;-69
2022/08/07 10:38:13;;;;;;;1.10;1.10;;;24.50;65.70;;;;;;5079916;28;20269;-70
2022/08/07 10:40:49;;;;;;;1.00;1.00;;;24.50;65.90;;;;;;5094488;28;20184;-70
2022/08/07 10:43:42;;;;;;;1.00;1.00;;;24.50;65.50;;;;;;5095003;28;20184;-70
2022/08/07 10:46:29;;;;;;;1.60;1.20;;;24.50;66.00;;;;;;5078042;28;20208;-70
2022/08/07 10:49:18;;;;;;;1.25;1.17;;;24.50;65.90;;;;;;5095332;28;20211;-70
2022/08/07 10:52:12;;;;;;;1.10;1.10;;;24.50;65.80;;;;;;5111276;28;20208;-70
2022/08/07 10:54:49;;;;;;;0.93;0.93;;;24.50;65.90;;;;;;5094808;28;20610;-70
2022/08/07 10:57:49;;;;;;;1.25;1.10;;;24.50;65.70;;;;;;5113021;28;20231;-70
2022/08/07 11:00:17;;;;;;;1.23;1.13;;;24.50;65.70;;;;;;5077904;28;20191;-70
2022/08/07 11:03:06;;;;;;;1.30;1.23;;;24.50;65.20;;;;;;5094210;28;20677;-70
2022/08/07 11:05:57;;;;;;;1.30;1.25;;;24.50;65.20;;;;;;5094086;28;20219;-70
2022/08/07 11:08:51;;;;;;;1.52;1.15;;;24.50;65.70;;;;;;5077762;28;20207;-70
2022/08/07 11:11:26;;;;;;;0.90;0.90;;;24.50;65.80;;;;;;5077016;28;20220;-70
2022/08/07 11:14:22;;;;;;;0.98;0.98;;;24.50;65.30;;;;;;5112748;28;20189;-71
2022/08/07 11:16:59;;;;;;;1.00;1.00;;;24.50;65.60;;;;;;5112536;28;20221;-72
2022/08/07 11:19:47;;;;;;;1.30;1.20;;;24.50;65.70;;;;;;5112513;28;20179;-70
2022/08/07 11:22:25;;;;;;;0.98;0.98;;;24.60;65.10;;;;;;5093879;28;20329;-71
2022/08/07 11:25:02;;;;;;;1.48;1.20;;;24.50;65.10;;;;;;5094495;28;20179;-70
2022/08/07 11:27:52;;;;;;;0.95;0.95;;;24.50;65.40;;;;;;5094203;28;20207;-70
2022/08/07 11:30:24;;;;;;;1.10;1.10;;;24.60;65.10;;;;;;5094335;28;20539;-70
2022/08/07 11:33:30;;;;;;;1.35;1.35;;;24.50;65.40;;;;;;5111874;28;20179;-70
2022/08/07 11:36:37;;;;;;;1.15;1.05;;;24.50;65.30;;;;;;5063299;28;20196;-70
2022/08/07 11:40:00;;;;;;;1.23;1.20;;;24.60;65.20;;;;;;5093848;28;20209;-72
2022/08/07 11:42:57;;;;;;;1.10;1.10;;;24.50;65.20;;;;;;5080268;28;20356;-70
2022/08/07 11:46:04;;;;;;;1.30;1.30;;;24.50;65.00;;;;;;5094364;28;20245;-70
2022/08/07 11:48:45;;;;;;;0.90;0.90;;;24.50;65.30;;;;;;5094151;28;20206;-70
2022/08/07 11:51:39;;;;;;;1.35;1.25;;;24.50;65.10;;;;;;5093483;28;20263;-70
2022/08/07 11:54:46;;;;;;;1.20;1.20;;;24.50;65.30;;;;;;5093963;28;20191;-70
2022/08/07 11:57:32;;;;;;;1.10;1.10;;;24.50;65.10;;;;;;5110902;28;20208;-70
2022/08/07 12:00:09;;;;;;;1.10;1.10;;;24.50;65.10;;;;;;5090602;28;20188;-70
2022/08/07 12:03:25;;;;;;;1.00;1.00;;;24.50;65.10;;;;;;5110352;28;20195;-71
2022/08/07 12:06:33;;;;;;;1.20;1.10;;;24.50;65.30;;;;;;5112074;28;20172;-70
2022/08/07 12:09:35;;;;;;;1.10;1.10;;;24.50;65.00;;;;;;5111936;28;20191;-70
2022/08/07 12:12:10;;;;;;;1.23;1.23;;;24.60;65.20;;;;;;5093405;28;20227;-70
2022/08/07 12:14:56;;;;;;;1.42;1.33;;;24.60;65.20;;;;;;5076901;28;20187;-70
2022/08/07 12:18:21;;;;;;;1.27;1.17;;;24.60;65.60;;;;;;5096815;28;20203;-70
2022/08/07 12:21:23;;;;;;;1.20;1.20;;;24.60;65.10;;;;;;5093044;28;20282;-70
2022/08/07 12:24:29;;;;;;;1.30;1.30;;;24.60;65.30;;;;;;5097806;28;20225;-72
2022/08/07 12:27:08;;;;;;;1.27;1.27;;;24.50;65.30;;;;;;5115822;28;20204;-70
2022/08/07 12:30:00;;;;;;;1.15;1.10;;;24.60;65.10;;;;;;5115800;28;20184;-70
2022/08/07 12:32:38;;;;;;;1.20;1.20;;;24.60;65.00;;;;;;5080219;28;20223;-70
2022/08/07 12:35:10;;;;;;;1.08;1.08;;;24.60;65.40;;;;;;5114624;28;20188;-70
2022/08/07 12:37:39;;;;;;;1.15;1.15;;;24.60;65.10;;;;;;5096832;28;20203;-70
2022/08/07 12:40:08;;;;;;;1.90;1.30;;;24.60;65.40;;;;;;5097734;28;20275;-70
2022/08/07 12:42:36;;;;;;;1.15;1.10;;;24.60;65.20;;;;;;5080065;28;20559;-70
2022/08/07 12:45:14;;;;;;;1.25;1.25;;;24.50;65.00;;;;;;5114282;28;20179;-70
2022/08/07 12:47:54;;;;;;;1.10;1.10;;;24.60;65.40;;;;;;5114162;28;20195;-70
2022/08/07 12:50:55;;;;;;;1.10;1.10;;;24.60;65.10;;;;;;5115412;28;20180;-70
2022/08/07 12:53:48;;;;;;;1.23;1.13;;;24.60;65.10;;;;;;5115451;28;20188;-70
2022/08/07 12:56:27;;;;;;;1.20;1.10;;;24.60;65.10;;;;;;5115156;28;20176;-71
2022/08/07 12:58:55;;;;;;;1.20;1.20;;;24.60;66.20;;;;;;5097162;28;20187;-71
2022/08/07 13:02:06;;;;;;;1.27;1.27;;;24.60;64.80;;;;;;5096697;28;20180;-70
2022/08/07 13:04:57;;;;;;;1.10;1.10;;;24.60;65.40;;;;;;5096906;28;20180;-70
2022/08/07 13:08:06;;;;;;;1.10;1.00;;;24.60;65.20;;;;;;5096578;28;20212;-70
2022/08/07 13:11:12;;;;;;;1.20;1.20;;;24.60;65.20;;;;;;5115010;28;20277;-70
2022/08/07 13:14:16;;;;;;;1.23;1.13;;;24.60;65.30;;;;;;5114947;28;20562;-70
2022/08/07 13:17:04;;;;;;;1.20;1.20;;;24.60;65.00;;;;;;5096888;28;20183;-70
2022/08/07 13:19:58;;;;;;;1.02;1.02;;;24.60;64.90;;;;;;5113720;28;20215;-70
2022/08/07 13:22:40;;;;;;;1.00;1.00;;;24.60;65.00;;;;;;5112984;28;20272;-70
2022/08/07 13:25:24;;;;;;;1.23;1.23;;;24.60;65.20;;;;;;5114978;28;20176;-70
2022/08/07 13:27:58;;;;;;;1.17;1.08;;;24.60;65.10;;;;;;5113453;28;20578;-70
2022/08/07 13:30:30;;;;;;;1.30;1.20;;;24.60;64.60;;;;;;5113374;28;20180;-70
2022/08/07 13:33:19;;;;;;;0.90;0.90;;;24.60;64.70;;;;;;5096203;28;20207;-70
2022/08/07 13:36:09;;;;;;;1.10;1.00;;;24.60;65.00;;;;;;5113156;28;20204;-70
2022/08/07 13:39:01;;;;;;;1.13;1.13;;;24.60;66.40;;;;;;5096072;28;20200;-70
2022/08/07 13:41:55;;;;;;;1.30;1.20;;;24.60;65.80;;;;;;5113757;28;20176;-70
2022/08/07 13:44:31;;;;;;;1.15;1.05;;;24.60;65.10;;;;;;5111568;28;20199;-71
2022/08/07 13:47:00;;;;;;;1.15;1.15;;;24.60;65.10;;;;;;5113004;28;20212;-71
2022/08/07 13:49:34;;;;;;;1.92;1.05;;;24.60;64.90;;;;;;5079418;28;20176;-70